Time;durP1;ratioP1;P1;durP2;ratioP2;P2;SDS_P1;SDS_P2;PMS_P1;PMS_P2;Temp;Humidity;BMP_temperature;BMP_pressure;BME280_temperature;BME280_humidity;BME280_pressure;Samples;Min_cycle;Max_cycle;Signal;HPM_P1;HPM_P2
2021/08/12 00:00:44;;;;;;;0.00;0.00;;;;;;;;;;10527029;28;20058;-22
2021/08/12 00:05:47;;;;;;;0.00;0.00;;;;;;;;;;10526475;28;20780;-23
2021/08/12 00:10:51;;;;;;;0.00;0.00;;;;;;;;;;10526024;28;20039;-23
2021/08/12 00:15:54;;;;;;;0.03;0.00;;;;;;;;;;10525490;28;20050;-23
2021/08/12 00:20:56;;;;;;;0.00;0.00;;;;;;;;;;10525115;28;20048;-23
2021/08/12 00:26:00;;;;;;;0.00;0.00;;;;;;;;;;10529012;28;20039;-23
2021/08/12 00:31:03;;;;;;;0.00;0.00;;;;;;;;;;10527168;28;20048;-23
2021/08/12 00:36:06;;;;;;;0.00;0.00;;;;;;;;;;10530552;28;20031;-22
2021/08/12 00:41:11;;;;;;;0.00;0.00;;;;;;;;;;10531289;28;20132;-22
2021/08/12 00:46:14;;;;;;;0.15;0.10;;;;;;;;;;10518047;28;20440;-23
2021/08/12 00:51:17;;;;;;;0.00;0.00;;;;;;;;;;10532227;28;20119;-23
2021/08/12 00:56:22;;;;;;;0.00;0.00;;;;;;;;;;10519677;28;20138;-23
2021/08/12 01:01:26;;;;;;;0.00;0.00;;;;;;;;;;10503119;28;20818;-23
2021/08/12 01:06:31;;;;;;;0.00;0.00;;;;;;;;;;10501152;28;20044;-23
2021/08/12 01:11:38;;;;;;;0.10;0.00;;;;;;;;;;10520043;28;20056;-23
2021/08/12 01:16:45;;;;;;;0.00;0.00;;;;;;;;;;10501554;28;20545;-23
2021/08/12 01:21:53;;;;;;;0.00;0.00;;;;;;;;;;10503567;28;20104;-23
2021/08/12 01:27:00;;;;;;;0.22;0.00;;;;;;;;;;10502230;28;20101;-23
2021/08/12 01:32:08;;;;;;;0.00;0.00;;;;;;;;;;10503997;28;20083;-23
2021/08/12 01:37:13;;;;;;;0.00;0.00;;;;;;;;;;10509159;28;20056;-23
2021/08/12 01:42:18;;;;;;;0.00;0.00;;;;;;;;;;10517189;28;20047;-23
2021/08/12 01:47:24;;;;;;;0.00;0.00;;;;;;;;;;10517260;28;20075;-23
2021/08/12 01:52:30;;;;;;;0.00;0.00;;;;;;;;;;10516789;28;20071;-23
2021/08/12 01:57:33;;;;;;;0.00;0.00;;;;;;;;;;10521179;28;21614;-23
2021/08/12 02:02:37;;;;;;;0.00;0.00;;;;;;;;;;10518874;28;20048;-23
2021/08/12 02:07:43;;;;;;;0.00;0.00;;;;;;;;;;10537876;28;20060;-23
2021/08/12 02:12:46;;;;;;;0.00;0.00;;;;;;;;;;10517930;28;20050;-23
2021/08/12 02:17:50;;;;;;;0.00;0.00;;;;;;;;;;10521169;28;20044;-23
2021/08/12 02:22:57;;;;;;;0.00;0.00;;;;;;;;;;10542585;28;20123;-23
2021/08/12 02:28:03;;;;;;;0.00;0.00;;;;;;;;;;10518314;28;20062;-23
2021/08/12 02:33:07;;;;;;;0.00;0.00;;;;;;;;;;10522354;28;20131;-23
2021/08/12 02:38:12;;;;;;;0.00;0.00;;;;;;;;;;10510671;28;20051;-23
2021/08/12 02:43:20;;;;;;;0.00;0.00;;;;;;;;;;10499571;28;20079;-23
2021/08/12 02:48:24;;;;;;;0.00;0.00;;;;;;;;;;10494356;28;20071;-22
2021/08/12 02:53:28;;;;;;;0.00;0.00;;;;;;;;;;10505807;28;20056;-22
2021/08/12 02:58:32;;;;;;;0.00;0.00;;;;;;;;;;10507609;28;20043;-23
2021/08/12 03:03:37;;;;;;;0.00;0.00;;;;;;;;;;10511086;28;20063;-23
2021/08/12 03:08:44;;;;;;;0.00;0.00;;;;;;;;;;10508942;28;20123;-23
2021/08/12 03:13:47;;;;;;;0.00;0.00;;;;;;;;;;10529714;28;20044;-23
2021/08/12 03:18:50;;;;;;;0.00;0.00;;;;;;;;;;10530004;28;20041;-23
2021/08/12 03:24:01;;;;;;;0.00;0.00;;;;;;;;;;10514666;28;20047;-23
2021/08/12 03:29:04;;;;;;;0.10;0.00;;;;;;;;;;10514572;28;20060;-24
2021/08/12 03:34:06;;;;;;;0.00;0.00;;;;;;;;;;10533754;28;20071;-22
2021/08/12 03:39:11;;;;;;;0.10;0.10;;;;;;;;;;10517017;28;20067;-23
2021/08/12 03:44:14;;;;;;;0.00;0.00;;;;;;;;;;10514002;28;20056;-23
2021/08/12 03:49:36;;;;;;;0.00;0.00;;;;;;;;;;10518758;28;20046;-23
2021/08/12 03:54:41;;;;;;;0.00;0.00;;;;;;;;;;10521337;28;20058;-23
2021/08/12 03:59:43;;;;;;;0.00;0.00;;;;;;;;;;10518540;28;20593;-23
2021/08/12 04:04:47;;;;;;;0.00;0.00;;;;;;;;;;10503557;28;20154;-23
2021/08/12 04:09:52;;;;;;;0.00;0.00;;;;;;;;;;10501593;28;20044;-23
2021/08/12 04:14:55;;;;;;;0.10;0.10;;;;;;;;;;10501925;28;20118;-23
2021/08/12 04:19:58;;;;;;;0.00;0.00;;;;;;;;;;10517690;28;20122;-23
2021/08/12 04:25:02;;;;;;;0.00;0.00;;;;;;;;;;10518657;28;20761;-23
2021/08/12 04:30:06;;;;;;;0.00;0.00;;;;;;;;;;10497972;28;20036;-21
2021/08/12 04:35:09;;;;;;;0.00;0.00;;;;;;;;;;10502833;28;20127;-22
2021/08/12 04:40:15;;;;;;;0.00;0.00;;;;;;;;;;10500698;28;20050;-22
2021/08/12 04:45:19;;;;;;;0.00;0.00;;;;;;;;;;10520651;28;20130;-21
2021/08/12 04:50:22;;;;;;;0.00;0.00;;;;;;;;;;10497952;28;20054;-21
2021/08/12 04:55:26;;;;;;;0.00;0.00;;;;;;;;;;10503972;28;20067;-21
2021/08/12 05:00:29;;;;;;;0.00;0.00;;;;;;;;;;10500586;28;20052;-21
2021/08/12 05:05:33;;;;;;;0.08;0.08;;;;;;;;;;10495347;28;20044;-21
2021/08/12 05:10:38;;;;;;;0.00;0.00;;;;;;;;;;10501537;28;20713;-21
2021/08/12 05:15:41;;;;;;;0.00;0.00;;;;;;;;;;10523639;28;20389;-21
2021/08/12 05:20:47;;;;;;;0.00;0.00;;;;;;;;;;10505780;28;20580;-21
2021/08/12 05:25:53;;;;;;;0.00;0.00;;;;;;;;;;10508419;28;20459;-21
2021/08/12 05:30:58;;;;;;;0.00;0.00;;;;;;;;;;10524578;28;20493;-21
2021/08/12 05:36:01;;;;;;;0.20;0.00;;;;;;;;;;10523347;28;20048;-21
2021/08/12 05:41:06;;;;;;;0.00;0.00;;;;;;;;;;10494833;28;20070;-21
2021/08/12 05:46:09;;;;;;;0.00;0.00;;;;;;;;;;10516408;28;20055;-21
2021/08/12 05:51:14;;;;;;;0.00;0.00;;;;;;;;;;10508526;28;20060;-22
2021/08/12 05:56:18;;;;;;;0.00;0.00;;;;;;;;;;10528519;28;20554;-21
2021/08/12 06:01:22;;;;;;;0.00;0.00;;;;;;;;;;10498242;28;20134;-22
2021/08/12 06:06:25;;;;;;;0.00;0.00;;;;;;;;;;10520584;28;20051;-22
2021/08/12 06:11:30;;;;;;;0.00;0.00;;;;;;;;;;10496408;28;20501;-22
2021/08/12 06:16:33;;;;;;;0.00;0.00;;;;;;;;;;10509629;28;20358;-21
2021/08/12 06:21:36;;;;;;;0.00;0.00;;;;;;;;;;10488268;28;20055;-22
2021/08/12 06:26:40;;;;;;;0.00;0.00;;;;;;;;;;10515763;28;20051;-21
2021/08/12 06:31:44;;;;;;;0.00;0.00;;;;;;;;;;10513368;28;20073;-21
2021/08/12 06:36:48;;;;;;;0.00;0.00;;;;;;;;;;10498785;28;20052;-21
2021/08/12 06:41:52;;;;;;;0.03;0.00;;;;;;;;;;10494474;28;20772;-21
2021/08/12 06:46:59;;;;;;;0.00;0.00;;;;;;;;;;10496321;28;20048;-21
2021/08/12 06:52:02;;;;;;;0.08;0.08;;;;;;;;;;10512792;28;20051;-21
2021/08/12 06:57:06;;;;;;;0.05;0.00;;;;;;;;;;10513960;28;20056;-23
2021/08/12 07:02:09;;;;;;;0.00;0.00;;;;;;;;;;10525852;28;20504;-22
2021/08/12 07:07:13;;;;;;;0.00;0.00;;;;;;;;;;10502857;28;20056;-21
2021/08/12 07:12:19;;;;;;;0.00;0.00;;;;;;;;;;10495451;28;20413;-22
2021/08/12 07:17:23;;;;;;;0.00;0.00;;;;;;;;;;10495818;28;20135;-22
2021/08/12 07:22:27;;;;;;;0.00;0.00;;;;;;;;;;10491915;28;20056;-22
2021/08/12 07:27:31;;;;;;;0.00;0.00;;;;;;;;;;10430301;28;20575;-22
2021/08/12 07:32:34;;;;;;;0.00;0.00;;;;;;;;;;10471443;28;20053;-22
2021/08/12 07:37:37;;;;;;;0.00;0.00;;;;;;;;;;10451081;28;20059;-22
2021/08/12 07:42:41;;;;;;;0.00;0.00;;;;;;;;;;10448279;28;20059;-22
2021/08/12 07:47:45;;;;;;;0.00;0.00;;;;;;;;;;10455250;28;20056;-22
2021/08/12 07:52:47;;;;;;;0.17;0.00;;;;;;;;;;10469055;28;20583;-23
2021/08/12 07:57:52;;;;;;;0.00;0.00;;;;;;;;;;10474086;28;20037;-22
2021/08/12 08:02:54;;;;;;;0.00;0.00;;;;;;;;;;10469849;28;20049;-22
2021/08/12 08:07:58;;;;;;;0.00;0.00;;;;;;;;;;10476155;28;20446;-23
2021/08/12 08:13:03;;;;;;;0.00;0.00;;;;;;;;;;10469974;28;20881;-22
2021/08/12 08:18:05;;;;;;;0.00;0.00;;;;;;;;;;10467559;28;20596;-22
2021/08/12 08:23:08;;;;;;;0.00;0.00;;;;;;;;;;10475720;28;20052;-22
2021/08/12 08:28:12;;;;;;;0.00;0.00;;;;;;;;;;10473305;28;20478;-22
2021/08/12 08:33:15;;;;;;;0.00;0.00;;;;;;;;;;10474427;28;20646;-22
2021/08/12 08:38:18;;;;;;;0.00;0.00;;;;;;;;;;10495092;28;20052;-21
2021/08/12 08:43:23;;;;;;;0.00;0.00;;;;;;;;;;10499840;28;20103;-24
2021/08/12 08:48:26;;;;;;;0.00;0.00;;;;;;;;;;10486168;28;20052;-22
2021/08/12 08:53:30;;;;;;;0.00;0.00;;;;;;;;;;10474812;28;20406;-22
2021/08/12 08:58:35;;;;;;;0.00;0.00;;;;;;;;;;10477199;28;20044;-22
2021/08/12 09:03:38;;;;;;;0.10;0.00;;;;;;;;;;10480020;28;20493;-22
2021/08/12 09:08:41;;;;;;;0.00;0.00;;;;;;;;;;10481485;28;20045;-22
2021/08/12 09:13:45;;;;;;;0.90;0.00;;;;;;;;;;10454107;28;20131;-22
2021/08/12 09:18:48;;;;;;;0.00;0.00;;;;;;;;;;10481577;28;20040;-22
2021/08/12 09:23:56;;;;;;;0.00;0.00;;;;;;;;;;10471902;28;20048;-23
2021/08/12 09:29:01;;;;;;;0.00;0.00;;;;;;;;;;10472603;28;20477;-23
2021/08/12 09:34:12;;;;;;;0.00;0.00;;;;;;;;;;10473510;28;20392;-24
2021/08/12 09:39:16;;;;;;;0.00;0.00;;;;;;;;;;10474657;28;20029;-24
2021/08/12 09:44:33;;;;;;;0.00;0.00;;;;;;;;;;10468993;28;20052;-22
2021/08/12 09:49:38;;;;;;;0.00;0.00;;;;;;;;;;10452365;28;20052;-24
2021/08/12 09:54:45;;;;;;;0.00;0.00;;;;;;;;;;10469379;28;20056;-24
2021/08/12 09:59:51;;;;;;;0.00;0.00;;;;;;;;;;10476360;28;20181;-24
2021/08/12 10:05:02;;;;;;;0.00;0.00;;;;;;;;;;10481745;28;20447;-23
2021/08/12 10:10:22;;;;;;;0.00;0.00;;;;;;;;;;10481900;28;20047;-23
2021/08/12 10:15:27;;;;;;;0.00;0.00;;;;;;;;;;10480656;28;20140;-23
2021/08/12 10:20:31;;;;;;;0.00;0.00;;;;;;;;;;10478044;28;20564;-25
2021/08/12 10:25:34;;;;;;;0.00;0.00;;;;;;;;;;10481256;28;20044;-24
2021/08/12 10:30:41;;;;;;;0.00;0.00;;;;;;;;;;10460829;28;20099;-23
2021/08/12 10:35:47;;;;;;;0.00;0.00;;;;;;;;;;10477827;28;20059;-23
2021/08/12 10:40:52;;;;;;;0.00;0.00;;;;;;;;;;10480635;28;20053;-23
2021/08/12 10:45:57;;;;;;;0.00;0.00;;;;;;;;;;10480970;28;20049;-23
2021/08/12 10:51:01;;;;;;;0.00;0.00;;;;;;;;;;10478862;28;20040;-24
2021/08/12 10:56:14;;;;;;;0.00;0.00;;;;;;;;;;10477811;28;20057;-24
2021/08/12 11:01:29;;;;;;;0.00;0.00;;;;;;;;;;10479560;28;20098;-23
2021/08/12 11:06:37;;;;;;;0.00;0.00;;;;;;;;;;10481333;28;20052;-23
2021/08/12 11:11:59;;;;;;;0.00;0.00;;;;;;;;;;10478525;28;20054;-23
2021/08/12 11:17:03;;;;;;;0.00;0.00;;;;;;;;;;10480188;28;20063;-23
2021/08/12 11:22:26;;;;;;;0.00;0.00;;;;;;;;;;10479490;28;20485;-23
2021/08/12 11:27:36;;;;;;;0.00;0.00;;;;;;;;;;10478779;28;20041;-24
2021/08/12 11:33:00;;;;;;;0.00;0.00;;;;;;;;;;10476706;28;20036;-23
2021/08/12 11:38:04;;;;;;;0.00;0.00;;;;;;;;;;10477315;28;20087;-23
2021/08/12 11:43:07;;;;;;;0.00;0.00;;;;;;;;;;10458803;28;20044;-24
2021/08/12 11:48:12;;;;;;;0.00;0.00;;;;;;;;;;10478170;28;20045;-24
2021/08/12 11:53:15;;;;;;;0.00;0.00;;;;;;;;;;10475109;28;20543;-24
2021/08/12 11:58:18;;;;;;;0.00;0.00;;;;;;;;;;10477018;28;20059;-23
2021/08/12 12:03:29;;;;;;;0.00;0.00;;;;;;;;;;10478824;28;20037;-24
2021/08/12 12:08:32;;;;;;;0.00;0.00;;;;;;;;;;10482631;28;20067;-24
2021/08/12 12:13:35;;;;;;;0.00;0.00;;;;;;;;;;10474713;28;20040;-24
2021/08/12 12:18:41;;;;;;;0.00;0.00;;;;;;;;;;10473806;28;20064;-24
2021/08/12 12:23:48;;;;;;;0.00;0.00;;;;;;;;;;10454638;28;20059;-24
2021/08/12 12:28:52;;;;;;;0.00;0.00;;;;;;;;;;10490070;28;20492;-24
2021/08/12 12:34:01;;;;;;;0.00;0.00;;;;;;;;;;10483301;28;20076;-23
2021/08/12 12:39:04;;;;;;;0.00;0.00;;;;;;;;;;10478447;28;20051;-24
2021/08/12 12:44:07;;;;;;;0.00;0.00;;;;;;;;;;10474205;28;20417;-24
2021/08/12 12:49:34;;;;;;;0.00;0.00;;;;;;;;;;10480056;28;20052;-24
2021/08/12 12:54:38;;;;;;;0.00;0.00;;;;;;;;;;10464566;28;20607;-24
2021/08/12 12:59:51;;;;;;;0.00;0.00;;;;;;;;;;10475994;28;20032;-24
2021/08/12 13:04:57;;;;;;;0.00;0.00;;;;;;;;;;10476429;28;20064;-24
2021/08/12 13:10:15;;;;;;;0.00;0.00;;;;;;;;;;10472465;28;20247;-24
2021/08/12 13:15:18;;;;;;;0.00;0.00;;;;;;;;;;10477044;28;20044;-24
2021/08/12 13:20:21;;;;;;;0.00;0.00;;;;;;;;;;10476538;28;20824;-24
2021/08/12 13:25:25;;;;;;;0.00;0.00;;;;;;;;;;10475786;28;20040;-24
2021/08/12 13:30:29;;;;;;;0.00;0.00;;;;;;;;;;10471894;28;20405;-25
2021/08/12 13:35:32;;;;;;;0.00;0.00;;;;;;;;;;10482072;28;20040;-25
2021/08/12 13:40:37;;;;;;;0.00;0.00;;;;;;;;;;10481943;28;20284;-24
2021/08/12 13:45:39;;;;;;;0.00;0.00;;;;;;;;;;10480947;28;20051;-23
2021/08/12 13:50:42;;;;;;;0.00;0.00;;;;;;;;;;10481567;28;20053;-24
2021/08/12 13:55:47;;;;;;;0.00;0.00;;;;;;;;;;10482085;28;20421;-23
2021/08/12 14:00:50;;;;;;;0.00;0.00;;;;;;;;;;10477939;28;20040;-24
2021/08/12 14:05:53;;;;;;;0.00;0.00;;;;;;;;;;10481223;28;20090;-26
2021/08/12 14:10:58;;;;;;;0.00;0.00;;;;;;;;;;10481531;28;20041;-25
2021/08/12 14:16:00;;;;;;;0.15;0.00;;;;;;;;;;10478955;28;20040;-24
2021/08/12 14:21:03;;;;;;;0.00;0.00;;;;;;;;;;10481925;28;20043;-25
2021/08/12 14:26:07;;;;;;;0.10;0.00;;;;;;;;;;10477705;28;20040;-25
2021/08/12 14:31:10;;;;;;;0.00;0.00;;;;;;;;;;10480385;28;20037;-24
2021/08/12 14:36:14;;;;;;;0.00;0.00;;;;;;;;;;10479153;28;20167;-26
2021/08/12 14:41:18;;;;;;;0.00;0.00;;;;;;;;;;10481572;28;20048;-24
2021/08/12 14:46:22;;;;;;;0.00;0.00;;;;;;;;;;10477074;28;20094;-25
2021/08/12 14:51:24;;;;;;;0.00;0.00;;;;;;;;;;10480907;28;20051;-24
2021/08/12 14:56:28;;;;;;;0.00;0.00;;;;;;;;;;10480443;28;20549;-25
2021/08/12 15:01:31;;;;;;;0.00;0.00;;;;;;;;;;10479858;28;20374;-24
2021/08/12 15:06:34;;;;;;;0.00;0.00;;;;;;;;;;10476990;28;20048;-25
2021/08/12 15:11:39;;;;;;;0.00;0.00;;;;;;;;;;10480232;28;20143;-25
2021/08/12 15:16:42;;;;;;;0.00;0.00;;;;;;;;;;10477190;28;20053;-23
2021/08/12 15:21:45;;;;;;;0.40;0.20;;;;;;;;;;10477066;28;20047;-25
2021/08/12 15:26:51;;;;;;;0.00;0.00;;;;;;;;;;10477393;28;20051;-25
2021/08/12 15:31:53;;;;;;;0.17;0.00;;;;;;;;;;10478909;28;20032;-23
2021/08/12 15:36:56;;;;;;;0.05;0.00;;;;;;;;;;10479547;28;20045;-23
2021/08/12 15:42:00;;;;;;;0.00;0.00;;;;;;;;;;10480296;28;20115;-23
2021/08/12 15:47:03;;;;;;;0.00;0.00;;;;;;;;;;10480608;28;20052;-24
2021/08/12 15:52:06;;;;;;;0.00;0.00;;;;;;;;;;10458320;28;20052;-24
2021/08/12 15:57:11;;;;;;;0.00;0.00;;;;;;;;;;10480132;28;20512;-25
2021/08/12 16:02:14;;;;;;;0.00;0.00;;;;;;;;;;10479059;28;20036;-24
2021/08/12 16:07:17;;;;;;;0.00;0.00;;;;;;;;;;10480147;28;20086;-27
2021/08/12 16:12:22;;;;;;;0.00;0.00;;;;;;;;;;10478452;28;20044;-27
2021/08/12 16:17:24;;;;;;;0.00;0.00;;;;;;;;;;10481682;28;20474;-27
2021/08/12 16:22:27;;;;;;;0.40;0.00;;;;;;;;;;10479038;28;20059;-25
2021/08/12 16:27:31;;;;;;;0.10;0.00;;;;;;;;;;10480207;28;20048;-25
2021/08/12 16:32:34;;;;;;;0.00;0.00;;;;;;;;;;10481890;28;21129;-29
2021/08/12 16:37:37;;;;;;;0.00;0.00;;;;;;;;;;10480789;28;20405;-27
2021/08/12 16:42:42;;;;;;;0.00;0.00;;;;;;;;;;10475709;28;20049;-28
2021/08/12 16:47:45;;;;;;;0.55;0.20;;;;;;;;;;10477996;28;20533;-27
2021/08/12 16:52:48;;;;;;;0.30;0.10;;;;;;;;;;10478107;28;20040;-27
2021/08/12 16:57:52;;;;;;;0.00;0.00;;;;;;;;;;10470876;28;20098;-27
2021/08/12 17:02:55;;;;;;;0.10;0.00;;;;;;;;;;10479284;28;20040;-27
2021/08/12 17:07:57;;;;;;;0.17;0.00;;;;;;;;;;10476824;28;20406;-27
2021/08/12 17:13:01;;;;;;;0.00;0.00;;;;;;;;;;10476863;28;20444;-26
2021/08/12 17:18:04;;;;;;;1.25;0.30;;;;;;;;;;10478690;28;20048;-27
2021/08/12 17:23:07;;;;;;;0.68;0.20;;;;;;;;;;10471569;28;20045;-27
2021/08/12 17:28:11;;;;;;;0.68;0.10;;;;;;;;;;10475927;28;20056;-28
2021/08/12 17:33:16;;;;;;;0.00;0.00;;;;;;;;;;10476668;28;20121;-27
2021/08/12 17:38:19;;;;;;;0.20;0.10;;;;;;;;;;10477533;28;20064;-27
2021/08/12 17:43:23;;;;;;;0.40;0.10;;;;;;;;;;10475983;28;20044;-26
2021/08/12 17:48:35;;;;;;;0.40;0.13;;;;;;;;;;10474186;28;20083;-26
2021/08/12 17:53:40;;;;;;;0.30;0.10;;;;;;;;;;10475214;28;20520;-26
2021/08/12 17:58:46;;;;;;;0.47;0.20;;;;;;;;;;10475421;28;20087;-27
2021/08/12 18:03:50;;;;;;;3.10;0.60;;;;;;;;;;10476997;28;20036;-27
2021/08/12 18:08:54;;;;;;;0.20;0.10;;;;;;;;;;10478808;28;20040;-27
2021/08/12 18:13:58;;;;;;;1.13;0.20;;;;;;;;;;10476886;28;20599;-28
2021/08/12 18:19:01;;;;;;;0.40;0.20;;;;;;;;;;10476126;28;20045;-27
2021/08/12 18:24:04;;;;;;;2.13;0.75;;;;;;;;;;10484381;28;20048;-26
2021/08/12 18:29:08;;;;;;;3.67;0.30;;;;;;;;;;10467005;28;20063;-26
2021/08/12 18:34:12;;;;;;;0.63;0.30;;;;;;;;;;10482032;28;20056;-28
2021/08/12 18:39:15;;;;;;;3.45;0.50;;;;;;;;;;10485636;28;20059;-26
2021/08/12 18:44:20;;;;;;;0.65;0.10;;;;;;;;;;10482865;28;20537;-25
2021/08/12 18:49:22;;;;;;;0.38;0.10;;;;;;;;;;10481753;28;20048;-26
2021/08/12 18:54:26;;;;;;;0.20;0.00;;;;;;;;;;10475783;28;20051;-26
2021/08/12 18:59:30;;;;;;;0.00;0.00;;;;;;;;;;10475138;28;20071;-26
2021/08/12 19:04:33;;;;;;;0.50;0.00;;;;;;;;;;10477737;28;20052;-26
2021/08/12 19:09:36;;;;;;;0.40;0.00;;;;;;;;;;10479746;28;20052;-27
2021/08/12 19:14:40;;;;;;;0.00;0.00;;;;;;;;;;10478282;28;20041;-26
2021/08/12 19:19:43;;;;;;;0.00;0.00;;;;;;;;;;10480482;28;20135;-26
2021/08/12 19:24:46;;;;;;;0.20;0.00;;;;;;;;;;10476001;28;20037;-26
2021/08/12 19:29:50;;;;;;;0.00;0.00;;;;;;;;;;10475899;28;20421;-26
2021/08/12 19:34:53;;;;;;;0.00;0.00;;;;;;;;;;10476864;28;20052;-26
2021/08/12 19:39:56;;;;;;;0.52;0.00;;;;;;;;;;10477103;28;20041;-28
2021/08/12 19:45:00;;;;;;;0.00;0.00;;;;;;;;;;10479727;28;20044;-25
2021/08/12 19:50:03;;;;;;;0.03;0.00;;;;;;;;;;10478042;28;20058;-26
2021/08/12 19:55:07;;;;;;;0.00;0.00;;;;;;;;;;10467469;28;20171;-26
2021/08/12 20:00:12;;;;;;;0.15;0.00;;;;;;;;;;10482407;28;20048;-27
2021/08/12 20:05:16;;;;;;;0.00;0.00;;;;;;;;;;10476162;28;20472;-27
2021/08/12 20:10:19;;;;;;;0.32;0.00;;;;;;;;;;10472966;28;20056;-26
2021/08/12 20:15:23;;;;;;;0.00;0.00;;;;;;;;;;10477573;28;20506;-26
2021/08/12 20:20:26;;;;;;;0.00;0.00;;;;;;;;;;10474090;28;20056;-27
2021/08/12 20:25:29;;;;;;;0.00;0.00;;;;;;;;;;10472823;28;20043;-27
2021/08/12 20:30:33;;;;;;;0.10;0.00;;;;;;;;;;10478096;28;20044;-27
2021/08/12 20:35:36;;;;;;;0.00;0.00;;;;;;;;;;10475778;28;20044;-28
2021/08/12 20:40:39;;;;;;;0.00;0.00;;;;;;;;;;10477099;28;20064;-27
2021/08/12 20:45:43;;;;;;;0.00;0.00;;;;;;;;;;10476237;28;20044;-27
2021/08/12 20:50:46;;;;;;;0.05;0.00;;;;;;;;;;10465082;28;20516;-26
2021/08/12 20:55:49;;;;;;;0.00;0.00;;;;;;;;;;10476660;28;20056;-25
2021/08/12 21:00:53;;;;;;;0.00;0.00;;;;;;;;;;10474784;28;20060;-25
2021/08/12 21:05:57;;;;;;;1.13;0.00;;;;;;;;;;10470310;28;20045;-26
2021/08/12 21:11:00;;;;;;;0.10;0.00;;;;;;;;;;10487720;28;20051;-25
2021/08/12 21:16:04;;;;;;;0.00;0.00;;;;;;;;;;10471492;28;20032;-26
2021/08/12 21:21:07;;;;;;;0.00;0.00;;;;;;;;;;10493224;28;20141;-26
2021/08/12 21:26:09;;;;;;;0.00;0.00;;;;;;;;;;10474999;28;20044;-26
2021/08/12 21:31:14;;;;;;;0.00;0.00;;;;;;;;;;10477296;28;20118;-25
2021/08/12 21:36:16;;;;;;;0.00;0.00;;;;;;;;;;10475193;28;20072;-26
2021/08/12 21:41:19;;;;;;;0.00;0.00;;;;;;;;;;10479011;28;20129;-26
2021/08/12 21:46:23;;;;;;;0.00;0.00;;;;;;;;;;10483490;28;20045;-25
2021/08/12 21:51:26;;;;;;;0.00;0.00;;;;;;;;;;10484492;28;20140;-26
2021/08/12 21:56:29;;;;;;;0.10;0.00;;;;;;;;;;10482735;28;20053;-26
2021/08/12 22:01:33;;;;;;;0.10;0.00;;;;;;;;;;10484079;28;20052;-26
2021/08/12 22:06:36;;;;;;;0.20;0.08;;;;;;;;;;10479865;28;20064;-25
2021/08/12 22:11:39;;;;;;;0.00;0.00;;;;;;;;;;10480771;28;20118;-25
2021/08/12 22:16:43;;;;;;;0.00;0.00;;;;;;;;;;10485315;28;20037;-26
2021/08/12 22:21:47;;;;;;;0.00;0.00;;;;;;;;;;10481378;28;20051;-25
2021/08/12 22:26:49;;;;;;;0.10;0.00;;;;;;;;;;10481751;28;20063;-26
2021/08/12 22:31:53;;;;;;;0.00;0.00;;;;;;;;;;10484206;28;20048;-25
2021/08/12 22:36:58;;;;;;;0.00;0.00;;;;;;;;;;10480012;28;20044;-25
2021/08/12 22:42:01;;;;;;;0.00;0.00;;;;;;;;;;10480030;28;20515;-25
2021/08/12 22:47:05;;;;;;;0.00;0.00;;;;;;;;;;10478780;28;20069;-25
2021/08/12 22:52:08;;;;;;;0.00;0.00;;;;;;;;;;10481117;28;20060;-26
2021/08/12 22:57:10;;;;;;;0.10;0.00;;;;;;;;;;10479249;28;20474;-25
2021/08/12 23:02:14;;;;;;;1.38;0.03;;;;;;;;;;10483752;28;20041;-26
2021/08/12 23:07:17;;;;;;;0.00;0.00;;;;;;;;;;10477003;28;20123;-27
2021/08/12 23:12:20;;;;;;;0.10;0.00;;;;;;;;;;10482959;28;20047;-25
2021/08/12 23:17:24;;;;;;;0.00;0.00;;;;;;;;;;10480901;28;20457;-25
2021/08/12 23:22:27;;;;;;;0.00;0.00;;;;;;;;;;10479848;28;20043;-26
2021/08/12 23:27:29;;;;;;;0.00;0.00;;;;;;;;;;10478626;28;20056;-25
2021/08/12 23:32:33;;;;;;;0.00;0.00;;;;;;;;;;10482716;28;20489;-25
2021/08/12 23:37:36;;;;;;;0.00;0.00;;;;;;;;;;10478370;28;20059;-26
2021/08/12 23:42:39;;;;;;;0.10;0.00;;;;;;;;;;10470138;28;20052;-26
2021/08/12 23:47:43;;;;;;;0.00;0.00;;;;;;;;;;10485902;28;20052;-26
2021/08/12 23:52:45;;;;;;;0.10;0.00;;;;;;;;;;10481881;28;20040;-26
2021/08/12 23:57:48;;;;;;;0.00;0.00;;;;;;;;;;10477858;28;20050;-26
